createdAt,value
2022-10-11T00:00:34.347Z,9.80
2022-10-11T00:03:02.402Z,9.70
2022-10-11T00:05:30.629Z,9.70
2022-10-11T00:07:58.962Z,9.60
2022-10-11T00:10:27.262Z,9.50
2022-10-11T00:12:55.347Z,9.40
2022-10-11T00:15:23.791Z,9.30
2022-10-11T00:17:53.205Z,9.30
2022-10-11T00:20:21.390Z,9.20
2022-10-11T00:22:50.168Z,9.10
2022-10-11T00:25:18.797Z,9.10
2022-10-11T00:27:46.948Z,9.10
2022-10-11T00:30:15.254Z,9.00
2022-10-11T00:32:43.284Z,8.90
2022-10-11T00:35:12.754Z,8.90
2022-10-11T00:37:41.070Z,8.80
2022-10-11T00:40:15.336Z,8.70
2022-10-11T00:42:43.436Z,8.70
2022-10-11T00:45:47.789Z,8.60
2022-10-11T00:48:22.640Z,8.60
2022-10-11T00:50:52.064Z,8.50
2022-10-11T00:53:20.107Z,8.40
2022-10-11T00:55:54.781Z,8.40
2022-10-11T00:58:24.362Z,8.40
2022-10-11T01:00:53.765Z,8.40
2022-10-11T01:03:25.628Z,8.30
2022-10-11T01:05:56.031Z,8.30
2022-10-11T01:08:24.846Z,8.20
2022-10-11T01:10:53.519Z,8.10
2022-10-11T01:13:29.948Z,8.10
2022-10-11T01:16:06.329Z,8.00
2022-10-11T01:18:41.915Z,8.00
2022-10-11T01:21:18.581Z,7.90
2022-10-11T01:24:43.798Z,7.80
2022-10-11T01:27:35.547Z,7.80
2022-10-11T01:30:21.491Z,7.70
2022-10-11T01:32:58.458Z,7.70
2022-10-11T01:35:30.831Z,7.70
2022-10-11T01:38:03.743Z,7.60
2022-10-11T01:40:36.411Z,7.60
2022-10-11T01:43:05.760Z,7.60
2022-10-11T01:45:36.634Z,7.50
2022-10-11T01:48:10.203Z,7.40
2022-10-11T01:50:48.915Z,7.40
2022-10-11T01:53:49.931Z,7.30
2022-10-11T01:56:31.990Z,7.30
2022-10-11T01:59:15.944Z,7.30
2022-10-11T02:01:55.492Z,7.20
2022-10-11T02:04:31.719Z,7.20
2022-10-11T02:07:04.570Z,7.10
2022-10-11T02:09:37.516Z,7.00
2022-10-11T02:12:10.424Z,6.90
2022-10-11T02:14:43.908Z,6.90
2022-10-11T02:17:16.226Z,6.90
2022-10-11T02:19:48.175Z,6.90
2022-10-11T02:22:20.476Z,6.80
2022-10-11T02:24:53.413Z,6.80
2022-10-11T02:27:25.652Z,6.70
2022-10-11T02:29:56.810Z,6.60
2022-10-11T02:32:27.168Z,6.60
2022-10-11T02:34:57.238Z,6.60
2022-10-11T02:37:31.648Z,6.50
2022-10-11T02:40:05.182Z,6.50
2022-10-11T02:42:37.284Z,6.40
2022-10-11T02:45:10.922Z,6.30
2022-10-11T02:47:41.747Z,6.30
2022-10-11T02:50:11.850Z,6.30
2022-10-11T02:52:40.026Z,6.30
2022-10-11T02:55:09.981Z,6.20
2022-10-11T02:57:37.981Z,6.20
2022-10-11T03:00:07.002Z,6.10
2022-10-11T03:02:35.025Z,6.10
2022-10-11T03:05:04.847Z,6.20
2022-10-11T03:07:32.886Z,6.20
2022-10-11T03:10:00.892Z,6.20
2022-10-11T03:12:28.864Z,6.20
2022-10-11T03:14:56.858Z,6.10
2022-10-11T03:17:36.153Z,6.10
2022-10-11T03:20:07.381Z,6.10
2022-10-11T03:22:35.381Z,5.90
2022-10-11T03:25:04.802Z,5.90
2022-10-11T03:27:33.328Z,5.80
2022-10-11T03:30:01.706Z,5.80
2022-10-11T03:32:30.283Z,5.70
2022-10-11T03:34:58.648Z,5.60
2022-10-11T03:37:28.224Z,5.60
2022-10-11T03:39:56.257Z,5.60
2022-10-11T03:42:24.262Z,5.60
2022-10-11T03:44:52.309Z,5.60
2022-10-11T03:47:20.479Z,5.60
2022-10-11T03:49:48.487Z,5.60
2022-10-11T03:52:16.505Z,5.50
2022-10-11T03:54:45.908Z,5.50
2022-10-11T03:57:13.903Z,5.50
2022-10-11T03:59:41.981Z,5.50
2022-10-11T04:02:10.327Z,5.40
2022-10-11T04:04:38.410Z,5.40
2022-10-11T04:07:06.420Z,5.40
2022-10-11T04:09:34.435Z,5.40
2022-10-11T04:12:03.944Z,5.40
2022-10-11T04:14:31.959Z,5.40
2022-10-11T04:17:00.573Z,5.30
2022-10-11T04:19:29.150Z,5.30
2022-10-11T04:21:57.125Z,5.30
2022-10-11T04:24:25.165Z,5.30
2022-10-11T04:26:53.223Z,5.20
2022-10-11T04:29:22.711Z,5.20
2022-10-11T04:31:50.720Z,5.20
2022-10-11T04:34:19.147Z,5.20
2022-10-11T04:36:49.885Z,5.20
2022-10-11T04:39:18.470Z,5.20
2022-10-11T04:41:46.514Z,5.10
2022-10-11T04:44:14.589Z,5.10
2022-10-11T04:46:43.988Z,5.10
2022-10-11T04:49:12.008Z,5.10
2022-10-11T04:51:40.084Z,5.10
2022-10-11T04:54:08.091Z,5.00
2022-10-11T04:56:36.107Z,5.00
2022-10-11T04:59:04.303Z,5.00
2022-10-11T05:01:32.470Z,5.00
2022-10-11T05:04:01.930Z,5.00
2022-10-11T05:06:29.994Z,5.00
2022-10-11T05:08:58.255Z,5.00
2022-10-11T05:11:26.251Z,5.00
2022-10-11T05:13:56.522Z,5.00
2022-10-11T05:16:24.870Z,4.90
2022-10-11T05:18:52.880Z,4.90
2022-10-11T05:21:24.073Z,4.80
2022-10-11T05:23:54.035Z,4.80
2022-10-11T05:26:22.315Z,4.80
2022-10-11T05:28:50.822Z,4.80
2022-10-11T05:31:19.048Z,4.80
2022-10-11T05:33:47.237Z,4.80
2022-10-11T05:36:15.531Z,4.80
2022-10-11T05:38:45.127Z,4.80
2022-10-11T05:41:15.107Z,4.80
2022-10-11T05:43:44.507Z,4.80
2022-10-11T05:46:12.872Z,4.70
2022-10-11T05:48:41.162Z,4.70
2022-10-11T05:51:10.521Z,4.70
2022-10-11T05:53:39.382Z,4.70
2022-10-11T05:56:20.257Z,4.70
2022-10-11T05:58:48.469Z,4.70
2022-10-11T06:01:21.015Z,4.70
2022-10-11T06:03:49.465Z,4.70
2022-10-11T06:06:18.185Z,4.80
2022-10-11T06:08:47.060Z,4.80
2022-10-11T06:11:18.355Z,4.80
2022-10-11T06:13:46.422Z,4.80
2022-10-11T06:16:14.768Z,4.80
2022-10-11T06:18:42.835Z,4.80
2022-10-11T06:21:11.219Z,4.90
2022-10-11T06:23:39.187Z,4.90
2022-10-11T06:26:09.908Z,4.90
2022-10-11T06:28:39.623Z,5.00
2022-10-11T06:31:08.121Z,5.10
2022-10-11T06:33:36.675Z,5.20
2022-10-11T06:36:08.142Z,5.30
2022-10-11T06:38:37.312Z,5.40
2022-10-11T06:41:12.470Z,5.40
2022-10-11T06:43:41.831Z,5.40
2022-10-11T06:46:09.845Z,5.40
2022-10-11T06:48:41.658Z,5.50
2022-10-11T06:51:09.706Z,5.70
2022-10-11T06:53:37.935Z,5.80
2022-10-11T06:56:07.866Z,5.90
2022-10-11T06:58:36.827Z,6.00
2022-10-11T07:01:08.388Z,6.10
2022-10-11T07:03:36.609Z,6.10
2022-10-11T07:06:07.633Z,6.20
2022-10-11T07:08:36.292Z,6.30
2022-10-11T07:11:05.596Z,6.40
2022-10-11T07:13:33.765Z,6.70
2022-10-11T07:16:02.738Z,6.90
2022-10-11T07:18:32.802Z,7.20
2022-10-11T07:21:04.251Z,7.50
2022-10-11T07:23:32.461Z,7.70
2022-10-11T07:26:00.690Z,7.90
2022-10-11T07:28:30.527Z,8.10
2022-10-11T07:30:58.935Z,8.30
2022-10-11T07:33:26.977Z,8.40
2022-10-11T07:35:59.041Z,8.60
2022-10-11T07:38:27.033Z,8.80
2022-10-11T07:40:55.354Z,8.70
2022-10-11T07:43:23.314Z,8.60
2022-10-11T07:45:55.500Z,8.50
2022-10-11T07:48:23.797Z,8.60
2022-10-11T07:50:51.895Z,8.70
2022-10-11T07:53:21.707Z,8.80
2022-10-11T07:55:49.753Z,8.70
2022-10-11T07:58:17.762Z,8.80
2022-10-11T08:00:45.782Z,8.90
2022-10-11T08:03:14.043Z,9.10
2022-10-11T08:05:42.099Z,9.30
2022-10-11T08:08:10.232Z,9.30
2022-10-11T08:10:39.908Z,9.20
2022-10-11T08:13:08.985Z,9.20
2022-10-11T08:15:37.072Z,9.30
2022-10-11T08:18:05.557Z,9.30
2022-10-11T08:20:33.829Z,9.60
2022-10-11T08:23:01.989Z,9.80
2022-10-11T08:25:30.025Z,10.10
2022-10-11T08:27:59.374Z,10.30
2022-10-11T08:30:27.434Z,10.50
2022-10-11T08:32:55.398Z,10.50
2022-10-11T08:35:23.408Z,10.70
2022-10-11T08:37:51.447Z,10.70
2022-10-11T08:40:22.033Z,10.70
2022-10-11T08:42:56.611Z,10.70
2022-10-11T08:45:32.379Z,10.80
2022-10-11T08:48:09.650Z,10.90
2022-10-11T08:50:39.447Z,11.10
2022-10-11T08:53:16.010Z,11.30
2022-10-11T08:55:49.274Z,11.30
2022-10-11T08:58:20.597Z,11.30
2022-10-11T09:00:53.888Z,11.30
2022-10-11T09:03:29.522Z,11.30
2022-10-11T09:06:07.274Z,11.30
2022-10-11T09:08:45.811Z,11.40
2022-10-11T09:11:22.191Z,11.50
2022-10-11T09:14:06.080Z,11.60
2022-10-11T09:16:46.607Z,11.70
2022-10-11T09:19:39.788Z,11.80
2022-10-11T09:22:14.587Z,11.90
2022-10-11T09:25:00.668Z,12.00
2022-10-11T09:27:50.242Z,12.20
2022-10-11T09:30:21.709Z,12.00
2022-10-11T09:32:59.687Z,12.00
2022-10-11T09:35:33.470Z,12.00
2022-10-11T09:38:06.290Z,12.00
2022-10-11T09:40:44.795Z,11.90
2022-10-11T09:43:13.230Z,11.80
2022-10-11T09:45:49.206Z,11.90
2022-10-11T09:48:24.028Z,12.00
2022-10-11T09:51:03.841Z,12.20
2022-10-11T09:53:52.404Z,12.30
2022-10-11T09:56:20.640Z,12.30
2022-10-11T09:58:49.010Z,12.40
2022-10-11T10:01:25.572Z,12.40
2022-10-11T10:04:09.078Z,12.50
2022-10-11T10:06:37.854Z,12.50
2022-10-11T10:09:22.619Z,12.50
2022-10-11T10:11:50.782Z,12.50
2022-10-11T10:14:23.683Z,12.40
2022-10-11T10:17:01.741Z,12.30
2022-10-11T10:19:42.338Z,12.30
2022-10-11T10:22:19.722Z,12.20
2022-10-11T10:24:50.076Z,12.20
2022-10-11T10:27:22.146Z,12.30
2022-10-11T10:30:14.389Z,12.30
2022-10-11T10:32:56.579Z,12.30
2022-10-11T10:35:39.909Z,12.40
2022-10-11T10:38:17.405Z,12.40
2022-10-11T10:40:48.911Z,12.30
2022-10-11T10:43:19.913Z,12.40
2022-10-11T10:46:20.030Z,12.40
2022-10-11T10:51:57.772Z,12.60
2022-10-11T10:54:39.032Z,12.50
2022-10-11T10:57:15.494Z,12.50
2022-10-11T11:00:06.460Z,12.60
2022-10-11T11:02:42.082Z,12.60
2022-10-11T11:05:22.121Z,12.60
2022-10-11T11:08:00.194Z,12.70
2022-10-11T11:10:37.384Z,12.70
2022-10-11T11:13:29.722Z,12.80
2022-10-11T11:16:07.884Z,13.00
2022-10-11T11:18:44.522Z,13.00
2022-10-11T11:21:27.190Z,13.00
2022-10-11T11:24:04.225Z,13.00
2022-10-11T11:26:44.239Z,13.00
2022-10-11T11:29:23.382Z,13.10
2022-10-11T11:32:07.807Z,13.10
2022-10-11T11:34:40.249Z,13.00
2022-10-11T11:37:20.818Z,13.10
2022-10-11T11:39:53.082Z,13.20
2022-10-11T11:42:27.689Z,13.10
2022-10-11T11:44:55.917Z,13.10
2022-10-11T11:47:29.273Z,13.10
2022-10-11T11:50:02.537Z,13.10
2022-10-11T11:52:36.070Z,13.10
2022-10-11T11:55:12.189Z,13.10
2022-10-11T11:57:56.443Z,13.10
2022-10-11T12:00:26.727Z,13.10
2022-10-11T12:02:58.660Z,13.10
2022-10-11T12:05:29.798Z,13.20
2022-10-11T12:08:01.686Z,13.30
2022-10-11T12:10:37.691Z,13.40
2022-10-11T12:13:17.863Z,13.40
2022-10-11T12:16:02.621Z,13.30
2022-10-11T12:18:31.795Z,13.40
2022-10-11T12:21:06.107Z,13.40
2022-10-11T12:23:46.807Z,13.30
2022-10-11T12:29:45.394Z,13.30
2022-10-11T12:32:52.517Z,13.30
2022-10-11T12:35:51.357Z,13.30
2022-10-11T12:38:22.631Z,13.30
2022-10-11T12:40:54.258Z,13.30
2022-10-11T12:43:37.453Z,13.40
2022-10-11T12:46:34.271Z,13.40
2022-10-11T12:49:20.003Z,13.40
2022-10-11T12:51:59.523Z,13.40
2022-10-11T12:54:54.497Z,13.30
2022-10-11T12:57:47.138Z,13.30
2022-10-11T13:00:22.050Z,13.40
2022-10-11T13:02:50.847Z,13.30
2022-10-11T13:05:24.475Z,13.30
2022-10-11T13:07:56.023Z,13.30
2022-10-11T13:10:28.789Z,13.30
2022-10-11T13:12:59.668Z,13.30
2022-10-11T13:15:29.365Z,13.30
2022-10-11T13:18:01.149Z,13.30
2022-10-11T13:20:32.295Z,13.30
2022-10-11T13:23:01.703Z,13.20
2022-10-11T13:25:37.274Z,13.20
2022-10-11T13:28:09.784Z,13.20
2022-10-11T13:30:43.380Z,13.20
2022-10-11T13:33:19.799Z,13.20
2022-10-11T13:35:49.109Z,13.20
2022-10-11T13:38:23.176Z,13.20
2022-10-11T13:40:51.857Z,13.20
2022-10-11T13:43:23.065Z,13.20
2022-10-11T13:45:51.287Z,13.20
2022-10-11T13:48:19.382Z,13.20
2022-10-11T13:51:06.829Z,13.20
2022-10-11T13:53:36.736Z,13.20
2022-10-11T13:56:07.551Z,13.20
2022-10-11T13:58:41.089Z,13.20
2022-10-11T14:01:20.874Z,13.20
2022-10-11T14:03:54.110Z,13.10
2022-10-11T14:06:22.595Z,13.10
2022-10-11T14:08:56.397Z,13.10
2022-10-11T14:11:35.809Z,13.10
2022-10-11T14:14:31.645Z,13.00
2022-10-11T14:17:05.422Z,13.00
2022-10-11T14:19:33.589Z,13.00
2022-10-11T14:22:01.590Z,13.00
2022-10-11T14:24:30.971Z,13.00
2022-10-11T14:26:59.200Z,13.00
2022-10-11T14:29:29.003Z,13.00
2022-10-11T14:32:02.347Z,13.00
2022-10-11T14:34:30.975Z,13.10
2022-10-11T14:36:59.845Z,13.10
2022-10-11T14:39:31.819Z,13.10
2022-10-11T14:42:00.276Z,13.00
2022-10-11T14:44:28.517Z,13.00
2022-10-11T14:46:56.699Z,13.00
2022-10-11T14:49:27.433Z,12.90
2022-10-11T14:51:57.598Z,12.80
2022-10-11T14:54:27.652Z,12.80
2022-10-11T14:56:58.931Z,12.80
2022-10-11T14:59:30.115Z,12.80
2022-10-11T15:01:58.150Z,12.80
2022-10-11T15:04:27.438Z,12.70
2022-10-11T15:06:57.146Z,12.70
2022-10-11T15:09:25.464Z,12.70
2022-10-11T15:11:55.242Z,12.80
2022-10-11T15:14:25.919Z,12.70
2022-10-11T15:16:56.096Z,12.70
2022-10-11T15:19:26.100Z,12.70
2022-10-11T15:21:54.303Z,12.60
2022-10-11T15:24:22.537Z,12.60
2022-10-11T15:26:50.926Z,12.60
2022-10-11T15:29:21.778Z,12.50
2022-10-11T15:31:51.223Z,12.50
2022-10-11T15:34:19.219Z,12.50
2022-10-11T15:36:47.384Z,12.50
2022-10-11T15:39:27.313Z,12.40
2022-10-11T15:41:55.602Z,12.40
2022-10-11T15:44:23.686Z,12.30
2022-10-11T15:46:53.128Z,12.30
2022-10-11T15:49:21.165Z,12.30
2022-10-11T15:51:49.235Z,12.30
2022-10-11T15:54:17.252Z,12.20
2022-10-11T15:56:45.254Z,12.20
2022-10-11T15:59:13.225Z,12.20
2022-10-11T16:01:41.338Z,12.10
2022-10-11T16:04:11.111Z,12.10
2022-10-11T16:06:40.989Z,12.00
2022-10-11T16:09:08.974Z,11.90
2022-10-11T16:11:36.973Z,11.90
2022-10-11T16:14:04.991Z,11.90
2022-10-11T16:16:33.014Z,11.80
2022-10-11T16:19:01.042Z,11.70
2022-10-11T16:21:30.447Z,11.60
2022-10-11T16:23:58.910Z,11.60
2022-10-11T16:26:27.070Z,11.50
2022-10-11T16:28:56.623Z,11.40
2022-10-11T16:31:25.095Z,11.30
2022-10-11T16:33:53.628Z,11.20
2022-10-11T16:36:35.597Z,11.20
2022-10-11T16:39:07.950Z,11.00
2022-10-11T16:41:36.217Z,10.90
2022-10-11T16:44:04.317Z,10.80
2022-10-11T16:46:33.110Z,10.70
2022-10-11T16:49:01.199Z,10.60
2022-10-11T16:51:29.272Z,10.60
2022-10-11T16:53:57.276Z,10.50
2022-10-11T16:56:27.611Z,10.40
2022-10-11T16:58:56.215Z,10.30
2022-10-11T17:01:24.824Z,10.20
2022-10-11T17:03:53.891Z,10.10
2022-10-11T17:06:21.868Z,10.10
2022-10-11T17:08:49.915Z,10.00
2022-10-11T17:11:18.543Z,9.90
2022-10-11T17:13:49.614Z,9.80
2022-10-11T17:16:18.666Z,9.70
2022-10-11T17:18:46.706Z,9.70
2022-10-11T17:21:16.097Z,9.60
2022-10-11T17:23:44.335Z,9.60
2022-10-11T17:26:16.293Z,9.50
2022-10-11T17:28:44.632Z,9.40
2022-10-11T17:31:14.357Z,9.30
2022-10-11T17:33:42.329Z,9.30
2022-10-11T17:36:21.513Z,9.20
2022-10-11T17:38:50.154Z,9.10
2022-10-11T17:41:19.161Z,9.00
2022-10-11T17:43:47.609Z,9.00
2022-10-11T17:46:18.554Z,8.90
2022-10-11T17:48:46.528Z,8.80
2022-10-11T17:51:16.866Z,8.80
2022-10-11T17:53:45.927Z,8.70
2022-10-11T17:56:15.994Z,8.70
2022-10-11T17:58:45.201Z,8.60
2022-10-11T18:01:16.728Z,8.60
2022-10-11T18:03:45.943Z,8.60
2022-10-11T18:06:15.077Z,8.50
2022-10-11T18:08:43.401Z,8.40
2022-10-11T18:11:12.668Z,8.40
2022-10-11T18:13:43.219Z,8.40
2022-10-11T18:16:11.839Z,8.30
2022-10-11T18:18:42.317Z,8.30
2022-10-11T18:21:11.219Z,8.20
2022-10-11T18:23:39.287Z,8.20
2022-10-11T18:26:12.232Z,8.10
2022-10-11T18:28:41.183Z,8.10
2022-10-11T18:31:13.477Z,8.00
2022-10-11T18:33:45.898Z,8.00
2022-10-11T18:36:15.623Z,8.00
2022-10-11T18:38:46.581Z,7.90
2022-10-11T18:41:17.279Z,7.90
2022-10-11T18:43:49.966Z,7.80
2022-10-11T18:46:18.578Z,7.80
2022-10-11T18:48:50.466Z,7.80
2022-10-11T18:51:20.687Z,7.70
2022-10-11T18:53:49.647Z,7.70
2022-10-11T18:56:20.677Z,7.60
2022-10-11T18:58:50.086Z,7.60
2022-10-11T19:01:20.448Z,7.50
2022-10-11T19:03:52.714Z,7.50
2022-10-11T19:06:22.704Z,7.40
2022-10-11T19:08:52.694Z,7.40
2022-10-11T19:11:22.204Z,7.40
2022-10-11T19:13:56.241Z,7.40
2022-10-11T19:16:24.362Z,7.30
2022-10-11T19:18:54.280Z,7.30
2022-10-11T19:21:23.077Z,7.30
2022-10-11T19:23:51.649Z,7.20
2022-10-11T19:26:21.735Z,7.20
2022-10-11T19:28:55.132Z,7.10
2022-10-11T19:31:23.302Z,7.20
2022-10-11T19:33:51.329Z,7.10
2022-10-11T19:36:20.831Z,7.10
2022-10-11T19:38:50.267Z,7.10
2022-10-11T19:41:19.953Z,7.10
2022-10-11T19:43:48.334Z,7.10
2022-10-11T19:46:32.381Z,7.10
2022-10-11T19:49:07.358Z,7.10
2022-10-11T19:51:38.233Z,7.00
2022-10-11T19:54:08.239Z,7.00
2022-10-11T19:56:36.886Z,6.90
2022-10-11T19:59:06.568Z,6.90
2022-10-11T20:01:36.234Z,6.90
2022-10-11T20:04:06.297Z,6.90
2022-10-11T20:06:38.756Z,6.80
2022-10-11T20:09:28.403Z,6.80
2022-10-11T20:11:55.876Z,6.90
2022-10-11T20:14:24.019Z,6.90
2022-10-11T20:16:52.398Z,6.90
2022-10-11T20:19:24.847Z,6.90
2022-10-11T20:21:57.210Z,6.80
2022-10-11T20:24:27.423Z,6.70
2022-10-11T20:26:55.677Z,6.70
2022-10-11T20:29:25.268Z,6.70
2022-10-11T20:31:53.332Z,6.70
2022-10-11T20:34:21.324Z,6.70
2022-10-11T20:36:49.635Z,6.70
2022-10-11T20:39:19.045Z,6.70
2022-10-11T20:41:47.046Z,6.80
2022-10-11T20:44:16.170Z,6.70
2022-10-11T20:46:44.278Z,6.70
2022-10-11T20:49:13.439Z,6.60
2022-10-11T20:51:42.928Z,6.60
2022-10-11T20:54:11.258Z,6.60
2022-10-11T20:56:40.848Z,6.60
2022-10-11T20:59:09.219Z,6.50
2022-10-11T21:01:39.647Z,6.50
2022-10-11T21:04:11.074Z,6.50
2022-10-11T21:06:39.066Z,6.50
2022-10-11T21:09:08.512Z,6.40
2022-10-11T21:11:38.270Z,6.40
2022-10-11T21:14:07.818Z,6.40
2022-10-11T21:16:36.005Z,6.40
2022-10-11T21:19:04.075Z,6.40
2022-10-11T21:21:32.391Z,6.30
2022-10-11T21:24:02.226Z,6.30
2022-10-11T21:26:30.672Z,6.30
2022-10-11T21:29:00.250Z,6.30
2022-10-11T21:31:33.743Z,6.30
2022-10-11T21:34:02.501Z,6.30
2022-10-11T21:36:30.764Z,6.30
2022-10-11T21:38:58.782Z,6.20
2022-10-11T21:41:29.843Z,6.20
2022-10-11T21:43:58.575Z,6.20
2022-10-11T21:46:54.010Z,6.10
2022-10-11T21:49:18.017Z,6.10
2022-10-11T21:51:46.419Z,6.10
2022-10-11T21:54:14.529Z,6.10
2022-10-11T21:56:42.830Z,6.00
2022-10-11T21:59:12.382Z,6.00
2022-10-11T22:01:43.995Z,6.00
2022-10-11T22:04:12.569Z,5.90
2022-10-11T22:06:40.832Z,5.90
2022-10-11T22:09:09.442Z,5.90
2022-10-11T22:11:37.557Z,5.80
2022-10-11T22:14:05.994Z,5.80
2022-10-11T22:16:34.686Z,5.90
2022-10-11T22:19:04.748Z,5.90
2022-10-11T22:21:32.731Z,5.90
2022-10-11T22:24:01.161Z,5.80
2022-10-11T22:26:31.230Z,5.80
2022-10-11T22:28:59.998Z,5.70
2022-10-11T22:31:28.002Z,5.70
2022-10-11T22:33:56.251Z,5.60
2022-10-11T22:36:25.926Z,5.60
2022-10-11T22:38:55.255Z,5.60
2022-10-11T22:41:23.790Z,5.60
2022-10-11T22:43:52.310Z,5.60
2022-10-11T22:46:20.383Z,5.60
2022-10-11T22:48:48.383Z,5.50
2022-10-11T22:51:16.835Z,5.60
2022-10-11T22:53:46.505Z,5.50
2022-10-11T22:56:14.531Z,5.50
2022-10-11T22:58:42.579Z,5.40
2022-10-11T23:01:12.545Z,5.40
2022-10-11T23:03:40.872Z,5.40
2022-10-11T23:06:09.668Z,5.30
2022-10-11T23:08:37.688Z,5.30
2022-10-11T23:11:08.475Z,5.30
2022-10-11T23:13:36.853Z,5.30
2022-10-11T23:16:09.541Z,5.30
2022-10-11T23:18:38.318Z,5.20
2022-10-11T23:21:07.042Z,5.20
2022-10-11T23:23:35.638Z,5.20
2022-10-11T23:26:06.154Z,5.20
2022-10-11T23:28:36.100Z,5.20
2022-10-11T23:31:08.894Z,5.30
2022-10-11T23:33:37.400Z,5.30
2022-10-11T23:36:06.399Z,5.30
2022-10-11T23:38:34.392Z,5.30
2022-10-11T23:41:02.410Z,5.30
2022-10-11T23:43:30.390Z,5.30
2022-10-11T23:46:00.422Z,5.20
2022-10-11T23:48:28.489Z,5.20
2022-10-11T23:50:56.511Z,5.20
2022-10-11T23:53:24.566Z,5.20
2022-10-11T23:55:52.615Z,5.10
2022-10-11T23:58:20.651Z,5.10
